• Join FlightAware (Why Join?)
  • Login
  • US Flag 
04:58PM EDT


 

Airport Tracker/Info


-or-


 

Live Flight TrackerFlight Track Log ✈ N52384 ✈ 13-Jul-2013 ✈ KMMU - KHTO

Flight Track Log - Related Links

Times and Time Zones

All times are in EDT time to prevent confusion due to time zone crossing. See the N52384 flight status page for this flight to view local times or setup timezone preferences in your user account.

Time Position Orientation Groundspeed Altitude Reporting Facility
EDT Latitude Longitude Course Direction KTS MPH feet Rate Location/Type
03:06PM 40.7667 -74.4333 30° Northeast 82 94 1,400  Level New York TRACON
03:07PM 40.7500 -74.4167 143° Southeast 70 81 2,100 600 Climbing New York TRACON
03:08PM 40.7500 -74.3833 90° East 69 79 2,700 600 Climbing New York TRACON
03:09PM 40.7667 -74.3667 37° Northeast 72 83 3,300 480 Climbing New York TRACON
03:10PM 40.7833 -74.3500 37° Northeast 73 84 3,700 420 Climbing New York TRACON
03:11PM 40.9186 -74.3110 30° Northeast  Level FlightAware Approximate
03:11PM 40.7833 -74.3333 90° East 72 83 4,200  Level New York TRACON
03:12PM 40.8000 -74.3167 37° Northeast 75 86 4,800 480 Climbing New York TRACON
03:13PM 40.8167 -74.3000 37° Northeast 76 87 5,200 360 Climbing New York TRACON
03:14PM 40.8500 -74.2833 21° North 76 87 5,500 300 Climbing New York TRACON
03:15PM 40.8667 -74.2833 360° North 94 108 5,900 240 Climbing New York TRACON
03:16PM 40.9000 -74.2833 360° North 103 119 6,100 60 Climbing New York TRACON
03:17PM 40.9167 -74.2833 360° North 121 139 6,100  Level New York TRACON
03:18PM 40.9500 -74.2500 37° Northeast 127 146 6,100  Level New York TRACON
03:19PM 40.9833 -74.2167 37° Northeast 123 142 6,100 -60 Level New York TRACON
03:20PM 41.0000 -74.1833 56° Northeast 125 144 6,000  Descending New York TRACON
03:21PM 41.0167 -74.1500 56° Northeast 120 138 6,200  Climbing New York TRACON
03:22PM 41.0333 -74.1000 66° East 127 146 6,100 -120 Descending New York TRACON
03:23PM 41.0500 -74.0667 56° Northeast 126 145 6,000 -60 Descending New York TRACON
03:24PM 41.0667 -74.0333 56° Northeast 117 135 6,000  Level New York TRACON
03:25PM 41.0833 -73.9833 66° East 121 139 6,000  Level New York TRACON
03:26PM 41.1000 -73.9500 56° Northeast 120 138 6,000  Level New York TRACON
03:27PM 41.1167 -73.9167 56° Northeast 121 139 6,000  Level New York TRACON
03:28PM 41.1333 -73.8833 56° Northeast 117 135 6,100  Climbing New York TRACON
03:29PM 41.1500 -73.8500 56° Northeast 128 147 6,000 -300 Descending New York TRACON
03:30PM 41.1667 -73.8000 66° East 130 150 5,600 -480 Descending New York TRACON
03:31PM 41.2000 -73.7667 37° Northeast 131 151 5,100 -300 Descending New York TRACON
03:32PM 41.2167 -73.7333 56° Northeast 124 143 5,000 -60 Descending New York TRACON
03:33PM 41.2333 -73.6833 66° East 117 135 5,000  Level New York TRACON
03:34PM 41.2500 -73.6500 56° Northeast 120 138 5,000  Level New York TRACON
03:35PM 41.2667 -73.6167 56° Northeast 118 136 5,100  Climbing New York TRACON
03:36PM 41.2833 -73.5833 56° Northeast 123 142 5,000 -120 Descending New York TRACON
03:37PM 41.2833 -73.5333 90° East 116 133 4,900  Descending New York TRACON
03:38PM 41.2833 -73.5000 90° East 111 128 5,000 60 Climbing New York TRACON
03:39PM 41.2667 -73.4500 114° Southeast 118 136 5,100  Climbing New York TRACON
03:40PM 41.2667 -73.4167 90° East 116 133 5,000  Descending New York TRACON
03:41PM 41.2667 -73.3667 90° East 116 133 5,100  Climbing New York TRACON
03:42PM 41.2500 -73.3333 124° Southeast 115 132 5,100  Level New York TRACON
03:43PM 41.2500 -73.2833 90° East 113 130 5,100  Level New York TRACON
03:44PM 41.2500 -73.2500 90° East 118 136 5,100  Level New York TRACON
03:45PM 41.2333 -73.2000 114° Southeast 122 140 5,100  Level New York TRACON
03:46PM 41.2500 -73.1667 56° Northeast 118 136 5,100 -60 Level New York TRACON
03:47PM 41.2500 -73.1167 90° East 124 143 5,000 -60 Descending New York TRACON
03:48PM 41.2500 -73.0667 90° East 121 139 5,000  Level New York TRACON
03:49PM 41.2500 -73.0333 90° East 119 137 5,000  Level New York TRACON
03:50PM 41.2500 -72.9833 90° East 114 131 5,100  Climbing New York TRACON
03:51PM 41.2667 -72.9500 56° Northeast 117 135 5,100  Level New York TRACON
03:52PM 41.2667 -72.9000 90° East 116 133 5,100 -60 Level New York TRACON
03:53PM 41.2500 -72.8667 124° Southeast 112 129 5,000  Descending New York TRACON
03:54PM 41.2333 -72.8333 124° Southeast 107 123 5,100  Climbing New York TRACON
03:55PM 41.2167 -72.8000 124° Southeast 108 124 5,100  Level New York TRACON
03:56PM 41.2167 -72.7667 90° East 102 117 5,100 -60 Level New York TRACON
03:57PM 41.1833 -72.7333 143° Southeast 102 117 5,000 -60 Descending New York TRACON
03:58PM 41.1667 -72.7167 143° Southeast 101 116 5,000  Level New York TRACON
03:59PM 41.1333 -72.7000 159° South 102 117 5,000  Level New York TRACON
04:00PM 41.1167 -72.6667 124° Southeast 100 115 5,000  Level New York TRACON
04:01PM 41.1000 -72.6500 143° Southeast 102 117 5,000 -300 Level New York TRACON
04:02PM 41.0667 -72.6167 143° Southeast 112 129 4,400 -660 Descending New York TRACON
04:03PM 41.0500 -72.6000 143° Southeast 115 132 3,700 -900 Descending New York TRACON
04:04PM 41.0167 -72.5667 143° Southeast 116 133 2,700 -840 Descending New York TRACON
04:05PM 41.0000 -72.5500 143° Southeast 118 136 2,000 -360 Descending New York TRACON
04:06PM 40.9833 -72.5167 124° Southeast 106 122 2,000  Level New York TRACON
04:07PM 40.9500 -72.5000 159° South 101 116 2,000 -120 Level New York TRACON
04:08PM 40.9500 -72.4500 90° East 116 133 1,800 -180 Descending New York TRACON
04:09PM 40.9500 -72.4167 90° East 104 120 1,700 -120 Descending New York TRACON
04:10PM 40.9500 -72.3833 90° East 100 115 1,600 -240 Descending New York TRACON
04:11PM 40.9500 -72.3333 90° East 106 122 1,300 -300 Descending New York TRACON